sensor_id;sensor_type;location;lat;lon;timestamp;P1;durP1;ratioP1;P2;durP2;ratioP2
57225;SDS011;43082;43.568;22.256;2022-09-01T00:02:05;9.63;;;5.22;;
57225;SDS011;43082;43.568;22.256;2022-09-01T00:04:33;11.32;;;5.85;;
57225;SDS011;43082;43.568;22.256;2022-09-01T00:07:02;14.13;;;5.50;;
57225;SDS011;43082;43.568;22.256;2022-09-01T00:09:31;11.10;;;6.40;;
57225;SDS011;43082;43.568;22.256;2022-09-01T00:11:56;11.50;;;5.32;;
57225;SDS011;43082;43.568;22.256;2022-09-01T00:14:24;19.08;;;5.85;;
57225;SDS011;43082;43.568;22.256;2022-09-01T00:16:51;10.57;;;5.43;;
57225;SDS011;43082;43.568;22.256;2022-09-01T00:19:18;10.93;;;5.43;;
57225;SDS011;43082;43.568;22.256;2022-09-01T00:21:44;9.15;;;5.70;;
57225;SDS011;43082;43.568;22.256;2022-09-01T00:24:11;8.25;;;5.82;;
57225;SDS011;43082;43.568;22.256;2022-09-01T00:26:37;11.05;;;6.70;;
57225;SDS011;43082;43.568;22.256;2022-09-01T00:29:03;12.73;;;7.03;;
57225;SDS011;43082;43.568;22.256;2022-09-01T00:31:29;14.13;;;6.88;;
57225;SDS011;43082;43.568;22.256;2022-09-01T00:33:55;12.13;;;7.40;;
57225;SDS011;43082;43.568;22.256;2022-09-01T00:36:20;12.73;;;7.70;;
57225;SDS011;43082;43.568;22.256;2022-09-01T00:38:46;10.60;;;7.47;;
57225;SDS011;43082;43.568;22.256;2022-09-01T00:41:11;14.73;;;8.35;;
57225;SDS011;43082;43.568;22.256;2022-09-01T00:43:45;17.08;;;7.53;;
57225;SDS011;43082;43.568;22.256;2022-09-01T00:46:16;14.60;;;7.77;;
57225;SDS011;43082;43.568;22.256;2022-09-01T00:48:56;12.30;;;7.60;;
57225;SDS011;43082;43.568;22.256;2022-09-01T00:51:24;17.73;;;7.20;;
57225;SDS011;43082;43.568;22.256;2022-09-01T00:53:50;14.55;;;7.72;;
57225;SDS011;43082;43.568;22.256;2022-09-01T00:56:16;13.40;;;7.35;;
57225;SDS011;43082;43.568;22.256;2022-09-01T00:58:42;12.32;;;6.50;;
57225;SDS011;43082;43.568;22.256;2022-09-01T01:01:09;10.00;;;6.10;;
57225;SDS011;43082;43.568;22.256;2022-09-01T01:03:35;13.82;;;7.05;;
57225;SDS011;43082;43.568;22.256;2022-09-01T01:06:04;17.10;;;7.55;;
57225;SDS011;43082;43.568;22.256;2022-09-01T01:08:33;13.43;;;7.45;;
57225;SDS011;43082;43.568;22.256;2022-09-01T01:11:01;14.95;;;5.97;;
57225;SDS011;43082;43.568;22.256;2022-09-01T01:13:28;12.15;;;6.00;;
57225;SDS011;43082;43.568;22.256;2022-09-01T01:15:56;9.98;;;5.60;;
57225;SDS011;43082;43.568;22.256;2022-09-01T01:18:23;11.30;;;5.20;;
57225;SDS011;43082;43.568;22.256;2022-09-01T01:21:02;10.13;;;5.45;;
57225;SDS011;43082;43.568;22.256;2022-09-01T01:23:50;13.45;;;4.93;;
57225;SDS011;43082;43.568;22.256;2022-09-01T01:26:26;10.85;;;5.43;;
57225;SDS011;43082;43.568;22.256;2022-09-01T01:28:52;11.23;;;5.07;;
57225;SDS011;43082;43.568;22.256;2022-09-01T01:31:19;9.85;;;4.90;;
57225;SDS011;43082;43.568;22.256;2022-09-01T01:33:48;12.80;;;5.10;;
57225;SDS011;43082;43.568;22.256;2022-09-01T01:36:20;10.57;;;4.93;;
57225;SDS011;43082;43.568;22.256;2022-09-01T01:38:57;10.18;;;5.00;;
57225;SDS011;43082;43.568;22.256;2022-09-01T01:41:28;12.48;;;5.05;;
57225;SDS011;43082;43.568;22.256;2022-09-01T01:43:57;8.25;;;4.63;;
57225;SDS011;43082;43.568;22.256;2022-09-01T01:46:23;9.23;;;5.18;;
57225;SDS011;43082;43.568;22.256;2022-09-01T01:48:50;12.32;;;4.90;;
57225;SDS011;43082;43.568;22.256;2022-09-01T01:51:16;10.57;;;5.05;;
57225;SDS011;43082;43.568;22.256;2022-09-01T01:53:45;13.45;;;4.72;;
57225;SDS011;43082;43.568;22.256;2022-09-01T01:56:12;12.73;;;5.20;;
57225;SDS011;43082;43.568;22.256;2022-09-01T01:58:37;13.63;;;4.85;;
57225;SDS011;43082;43.568;22.256;2022-09-01T02:01:04;9.77;;;4.88;;
57225;SDS011;43082;43.568;22.256;2022-09-01T02:03:32;13.90;;;5.18;;
57225;SDS011;43082;43.568;22.256;2022-09-01T02:06:03;9.40;;;4.55;;
57225;SDS011;43082;43.568;22.256;2022-09-01T02:08:32;9.05;;;4.97;;
57225;SDS011;43082;43.568;22.256;2022-09-01T02:11:00;9.65;;;4.50;;
57225;SDS011;43082;43.568;22.256;2022-09-01T02:13:25;9.38;;;5.10;;
57225;SDS011;43082;43.568;22.256;2022-09-01T02:15:55;11.88;;;5.10;;
57225;SDS011;43082;43.568;22.256;2022-09-01T02:18:27;15.35;;;4.65;;
57225;SDS011;43082;43.568;22.256;2022-09-01T02:20:55;12.05;;;4.78;;
57225;SDS011;43082;43.568;22.256;2022-09-01T02:23:22;12.10;;;4.70;;
57225;SDS011;43082;43.568;22.256;2022-09-01T02:25:49;11.40;;;5.10;;
57225;SDS011;43082;43.568;22.256;2022-09-01T02:28:17;11.90;;;4.75;;
57225;SDS011;43082;43.568;22.256;2022-09-01T02:30:44;11.27;;;5.20;;
57225;SDS011;43082;43.568;22.256;2022-09-01T02:33:12;10.23;;;4.90;;
57225;SDS011;43082;43.568;22.256;2022-09-01T02:35:47;10.20;;;4.97;;
57225;SDS011;43082;43.568;22.256;2022-09-01T02:38:14;11.25;;;4.68;;
57225;SDS011;43082;43.568;22.256;2022-09-01T02:40:42;12.73;;;4.90;;
57225;SDS011;43082;43.568;22.256;2022-09-01T02:43:11;9.27;;;4.40;;
57225;SDS011;43082;43.568;22.256;2022-09-01T02:45:37;8.80;;;4.30;;
57225;SDS011;43082;43.568;22.256;2022-09-01T02:48:04;11.30;;;4.57;;
57225;SDS011;43082;43.568;22.256;2022-09-01T02:50:34;17.27;;;4.30;;
57225;SDS011;43082;43.568;22.256;2022-09-01T02:53:05;7.18;;;4.35;;
57225;SDS011;43082;43.568;22.256;2022-09-01T02:55:34;8.85;;;4.22;;
57225;SDS011;43082;43.568;22.256;2022-09-01T02:58:01;8.65;;;4.47;;
57225;SDS011;43082;43.568;22.256;2022-09-01T03:00:27;8.88;;;4.30;;
57225;SDS011;43082;43.568;22.256;2022-09-01T03:02:58;10.20;;;4.80;;
57225;SDS011;43082;43.568;22.256;2022-09-01T03:05:25;7.80;;;4.30;;
57225;SDS011;43082;43.568;22.256;2022-09-01T03:07:54;9.25;;;4.35;;
57225;SDS011;43082;43.568;22.256;2022-09-01T03:10:25;10.38;;;4.10;;
57225;SDS011;43082;43.568;22.256;2022-09-01T03:12:56;9.60;;;4.10;;
57225;SDS011;43082;43.568;22.256;2022-09-01T03:15:21;8.30;;;3.90;;
57225;SDS011;43082;43.568;22.256;2022-09-01T03:17:48;6.93;;;4.05;;
57225;SDS011;43082;43.568;22.256;2022-09-01T03:20:15;11.60;;;4.55;;
57225;SDS011;43082;43.568;22.256;2022-09-01T03:22:43;9.52;;;4.22;;
57225;SDS011;43082;43.568;22.256;2022-09-01T03:25:09;6.97;;;3.78;;
57225;SDS011;43082;43.568;22.256;2022-09-01T03:27:34;10.38;;;4.30;;
57225;SDS011;43082;43.568;22.256;2022-09-01T03:30:00;10.35;;;4.10;;
57225;SDS011;43082;43.568;22.256;2022-09-01T03:32:25;10.43;;;4.13;;
57225;SDS011;43082;43.568;22.256;2022-09-01T03:34:51;12.05;;;4.70;;
57225;SDS011;43082;43.568;22.256;2022-09-01T03:37:16;9.98;;;4.38;;
57225;SDS011;43082;43.568;22.256;2022-09-01T03:39:43;8.93;;;4.22;;
57225;SDS011;43082;43.568;22.256;2022-09-01T03:42:08;8.07;;;4.90;;
57225;SDS011;43082;43.568;22.256;2022-09-01T03:44:43;9.63;;;5.40;;
57225;SDS011;43082;43.568;22.256;2022-09-01T03:47:09;8.95;;;4.80;;
57225;SDS011;43082;43.568;22.256;2022-09-01T03:49:35;17.77;;;4.80;;
57225;SDS011;43082;43.568;22.256;2022-09-01T03:52:03;10.73;;;4.85;;
57225;SDS011;43082;43.568;22.256;2022-09-01T03:54:31;9.40;;;4.65;;
57225;SDS011;43082;43.568;22.256;2022-09-01T03:56:57;10.50;;;4.47;;
57225;SDS011;43082;43.568;22.256;2022-09-01T03:59:23;11.27;;;4.90;;
57225;SDS011;43082;43.568;22.256;2022-09-01T04:01:49;9.80;;;4.50;;
57225;SDS011;43082;43.568;22.256;2022-09-01T04:04:15;9.20;;;4.68;;
57225;SDS011;43082;43.568;22.256;2022-09-01T04:06:42;9.65;;;4.55;;
57225;SDS011;43082;43.568;22.256;2022-09-01T04:09:08;10.27;;;4.72;;
57225;SDS011;43082;43.568;22.256;2022-09-01T04:11:34;10.27;;;4.68;;
57225;SDS011;43082;43.568;22.256;2022-09-01T04:14:03;9.40;;;5.20;;
57225;SDS011;43082;43.568;22.256;2022-09-01T04:16:29;11.52;;;4.70;;
57225;SDS011;43082;43.568;22.256;2022-09-01T04:19:17;9.13;;;4.57;;
57225;SDS011;43082;43.568;22.256;2022-09-01T04:21:44;13.43;;;5.25;;
57225;SDS011;43082;43.568;22.256;2022-09-01T04:24:19;8.70;;;4.55;;
57225;SDS011;43082;43.568;22.256;2022-09-01T04:26:47;11.20;;;4.70;;
57225;SDS011;43082;43.568;22.256;2022-09-01T04:29:13;11.35;;;5.63;;
57225;SDS011;43082;43.568;22.256;2022-09-01T04:31:43;26.33;;;21.10;;
57225;SDS011;43082;43.568;22.256;2022-09-01T04:34:09;18.35;;;12.52;;
57225;SDS011;43082;43.568;22.256;2022-09-01T04:36:38;11.93;;;7.13;;
57225;SDS011;43082;43.568;22.256;2022-09-01T04:39:05;19.05;;;8.40;;
57225;SDS011;43082;43.568;22.256;2022-09-01T04:41:34;13.60;;;7.90;;
57225;SDS011;43082;43.568;22.256;2022-09-01T04:44:02;10.98;;;4.63;;
57225;SDS011;43082;43.568;22.256;2022-09-01T04:46:29;11.00;;;4.20;;
57225;SDS011;43082;43.568;22.256;2022-09-01T04:48:57;9.20;;;4.53;;
57225;SDS011;43082;43.568;22.256;2022-09-01T04:51:23;9.90;;;4.70;;
57225;SDS011;43082;43.568;22.256;2022-09-01T04:53:52;10.60;;;5.00;;
57225;SDS011;43082;43.568;22.256;2022-09-01T04:56:19;10.50;;;4.93;;
57225;SDS011;43082;43.568;22.256;2022-09-01T04:58:47;10.65;;;4.55;;
57225;SDS011;43082;43.568;22.256;2022-09-01T05:01:23;19.13;;;10.82;;
57225;SDS011;43082;43.568;22.256;2022-09-01T05:03:50;12.18;;;5.60;;
57225;SDS011;43082;43.568;22.256;2022-09-01T05:06:26;16.00;;;7.57;;
57225;SDS011;43082;43.568;22.256;2022-09-01T05:08:52;9.20;;;5.13;;
57225;SDS011;43082;43.568;22.256;2022-09-01T05:11:21;13.13;;;5.95;;
57225;SDS011;43082;43.568;22.256;2022-09-01T05:13:48;11.65;;;6.30;;
57225;SDS011;43082;43.568;22.256;2022-09-01T05:16:15;37.83;;;25.90;;
57225;SDS011;43082;43.568;22.256;2022-09-01T05:18:44;25.80;;;15.63;;
57225;SDS011;43082;43.568;22.256;2022-09-01T05:21:12;34.38;;;17.92;;
57225;SDS011;43082;43.568;22.256;2022-09-01T05:23:41;22.85;;;11.60;;
57225;SDS011;43082;43.568;22.256;2022-09-01T05:26:11;16.52;;;7.55;;
57225;SDS011;43082;43.568;22.256;2022-09-01T05:28:44;13.50;;;6.47;;
57225;SDS011;43082;43.568;22.256;2022-09-01T05:31:12;15.52;;;8.80;;
57225;SDS011;43082;43.568;22.256;2022-09-01T05:33:38;19.85;;;11.68;;
57225;SDS011;43082;43.568;22.256;2022-09-01T05:36:10;20.70;;;12.38;;
57225;SDS011;43082;43.568;22.256;2022-09-01T05:38:37;16.65;;;8.32;;
57225;SDS011;43082;43.568;22.256;2022-09-01T05:41:06;18.42;;;11.45;;
57225;SDS011;43082;43.568;22.256;2022-09-01T05:43:32;18.08;;;10.63;;
57225;SDS011;43082;43.568;22.256;2022-09-01T05:45:59;17.35;;;9.13;;
57225;SDS011;43082;43.568;22.256;2022-09-01T05:48:29;19.35;;;8.60;;
57225;SDS011;43082;43.568;22.256;2022-09-01T05:50:56;43.95;;;27.23;;
57225;SDS011;43082;43.568;22.256;2022-09-01T05:53:27;16.98;;;9.30;;
57225;SDS011;43082;43.568;22.256;2022-09-01T05:55:55;24.58;;;9.23;;
57225;SDS011;43082;43.568;22.256;2022-09-01T05:58:25;15.32;;;7.65;;
57225;SDS011;43082;43.568;22.256;2022-09-01T06:00:52;12.68;;;6.97;;
57225;SDS011;43082;43.568;22.256;2022-09-01T06:03:20;14.25;;;7.18;;
57225;SDS011;43082;43.568;22.256;2022-09-01T06:05:46;20.15;;;7.35;;
57225;SDS011;43082;43.568;22.256;2022-09-01T06:08:16;20.60;;;8.23;;
57225;SDS011;43082;43.568;22.256;2022-09-01T06:10:43;17.08;;;8.27;;
57225;SDS011;43082;43.568;22.256;2022-09-01T06:13:09;22.92;;;9.30;;
57225;SDS011;43082;43.568;22.256;2022-09-01T06:15:36;16.13;;;7.88;;
57225;SDS011;43082;43.568;22.256;2022-09-01T06:18:05;17.88;;;8.05;;
57225;SDS011;43082;43.568;22.256;2022-09-01T06:20:33;16.50;;;8.98;;
57225;SDS011;43082;43.568;22.256;2022-09-01T06:22:59;16.45;;;8.65;;
57225;SDS011;43082;43.568;22.256;2022-09-01T06:25:24;18.17;;;9.48;;
57225;SDS011;43082;43.568;22.256;2022-09-01T06:27:55;18.80;;;9.35;;
57225;SDS011;43082;43.568;22.256;2022-09-01T06:30:21;15.60;;;8.40;;
57225;SDS011;43082;43.568;22.256;2022-09-01T06:32:51;17.30;;;8.90;;
57225;SDS011;43082;43.568;22.256;2022-09-01T06:35:17;16.83;;;9.55;;
57225;SDS011;43082;43.568;22.256;2022-09-01T06:37:44;18.70;;;10.52;;
57225;SDS011;43082;43.568;22.256;2022-09-01T06:40:11;19.60;;;12.45;;
57225;SDS011;43082;43.568;22.256;2022-09-01T06:42:46;20.73;;;12.68;;
57225;SDS011;43082;43.568;22.256;2022-09-01T06:45:13;22.77;;;12.70;;
57225;SDS011;43082;43.568;22.256;2022-09-01T06:47:40;18.80;;;10.40;;
57225;SDS011;43082;43.568;22.256;2022-09-01T06:50:19;20.38;;;10.80;;
57225;SDS011;43082;43.568;22.256;2022-09-01T06:52:46;19.70;;;10.00;;
57225;SDS011;43082;43.568;22.256;2022-09-01T06:55:14;21.08;;;9.82;;
57225;SDS011;43082;43.568;22.256;2022-09-01T06:57:40;21.50;;;10.20;;
57225;SDS011;43082;43.568;22.256;2022-09-01T07:00:16;16.05;;;8.80;;
57225;SDS011;43082;43.568;22.256;2022-09-01T07:02:45;14.77;;;9.10;;
57225;SDS011;43082;43.568;22.256;2022-09-01T07:05:12;19.38;;;10.23;;
57225;SDS011;43082;43.568;22.256;2022-09-01T07:07:52;22.35;;;9.55;;
57225;SDS011;43082;43.568;22.256;2022-09-01T07:10:20;20.38;;;11.40;;
57225;SDS011;43082;43.568;22.256;2022-09-01T07:12:53;20.40;;;12.15;;
57225;SDS011;43082;43.568;22.256;2022-09-01T07:15:20;14.82;;;10.35;;
57225;SDS011;43082;43.568;22.256;2022-09-01T07:17:50;17.33;;;9.90;;
57225;SDS011;43082;43.568;22.256;2022-09-01T07:20:17;15.23;;;9.48;;
57225;SDS011;43082;43.568;22.256;2022-09-01T07:22:45;14.00;;;8.43;;
57225;SDS011;43082;43.568;22.256;2022-09-01T07:25:14;15.05;;;8.88;;
57225;SDS011;43082;43.568;22.256;2022-09-01T07:27:41;12.23;;;8.60;;
57225;SDS011;43082;43.568;22.256;2022-09-01T07:30:18;13.73;;;8.60;;
57225;SDS011;43082;43.568;22.256;2022-09-01T07:32:45;12.85;;;8.52;;
57225;SDS011;43082;43.568;22.256;2022-09-01T07:35:12;15.57;;;8.77;;
57225;SDS011;43082;43.568;22.256;2022-09-01T07:37:39;13.45;;;8.73;;
57225;SDS011;43082;43.568;22.256;2022-09-01T07:40:05;14.43;;;9.27;;
57225;SDS011;43082;43.568;22.256;2022-09-01T07:42:33;14.88;;;9.63;;
57225;SDS011;43082;43.568;22.256;2022-09-01T07:45:00;16.02;;;9.70;;
57225;SDS011;43082;43.568;22.256;2022-09-01T07:47:32;21.05;;;9.77;;
57225;SDS011;43082;43.568;22.256;2022-09-01T07:50:01;14.55;;;9.27;;
57225;SDS011;43082;43.568;22.256;2022-09-01T07:52:35;14.20;;;9.98;;
57225;SDS011;43082;43.568;22.256;2022-09-01T07:55:10;14.02;;;9.52;;
57225;SDS011;43082;43.568;22.256;2022-09-01T07:57:37;14.95;;;10.02;;
57225;SDS011;43082;43.568;22.256;2022-09-01T08:00:07;16.75;;;11.50;;
57225;SDS011;43082;43.568;22.256;2022-09-01T08:02:33;17.77;;;12.60;;
57225;SDS011;43082;43.568;22.256;2022-09-01T08:05:00;21.10;;;15.30;;
57225;SDS011;43082;43.568;22.256;2022-09-01T08:07:25;18.08;;;13.55;;
57225;SDS011;43082;43.568;22.256;2022-09-01T08:09:50;20.88;;;14.77;;
57225;SDS011;43082;43.568;22.256;2022-09-01T08:12:16;19.88;;;13.77;;
57225;SDS011;43082;43.568;22.256;2022-09-01T08:14:42;24.80;;;14.05;;
57225;SDS011;43082;43.568;22.256;2022-09-01T08:17:07;25.63;;;16.75;;
57225;SDS011;43082;43.568;22.256;2022-09-01T08:19:33;20.33;;;13.32;;
57225;SDS011;43082;43.568;22.256;2022-09-01T08:21:58;22.25;;;13.80;;
57225;SDS011;43082;43.568;22.256;2022-09-01T08:24:25;23.40;;;18.00;;
57225;SDS011;43082;43.568;22.256;2022-09-01T08:26:51;16.02;;;11.70;;
57225;SDS011;43082;43.568;22.256;2022-09-01T08:29:16;18.50;;;12.35;;
57225;SDS011;43082;43.568;22.256;2022-09-01T08:31:42;23.83;;;14.18;;
57225;SDS011;43082;43.568;22.256;2022-09-01T08:34:07;16.77;;;11.10;;
57225;SDS011;43082;43.568;22.256;2022-09-01T08:36:34;19.33;;;12.27;;
57225;SDS011;43082;43.568;22.256;2022-09-01T08:39:00;17.90;;;12.23;;
57225;SDS011;43082;43.568;22.256;2022-09-01T08:41:42;19.13;;;11.82;;
57225;SDS011;43082;43.568;22.256;2022-09-01T08:47:05;20.45;;;13.57;;
57225;SDS011;43082;43.568;22.256;2022-09-01T08:49:33;15.50;;;10.65;;
57225;SDS011;43082;43.568;22.256;2022-09-01T08:57:44;16.98;;;10.82;;
57225;SDS011;43082;43.568;22.256;2022-09-01T09:00:14;17.08;;;11.43;;
57225;SDS011;43082;43.568;22.256;2022-09-01T09:14:27;16.73;;;11.02;;
57225;SDS011;43082;43.568;22.256;2022-09-01T09:16:45;19.65;;;11.77;;
57225;SDS011;43082;43.568;22.256;2022-09-01T09:21:45;16.30;;;11.80;;
57225;SDS011;43082;43.568;22.256;2022-09-01T09:24:15;19.38;;;11.48;;
57225;SDS011;43082;43.568;22.256;2022-09-01T09:27:26;20.30;;;13.45;;
57225;SDS011;43082;43.568;22.256;2022-09-01T09:29:56;20.83;;;15.05;;
57225;SDS011;43082;43.568;22.256;2022-09-01T09:32:23;17.48;;;12.57;;
57225;SDS011;43082;43.568;22.256;2022-09-01T09:35:48;19.83;;;13.82;;
57225;SDS011;43082;43.568;22.256;2022-09-01T09:43:37;15.98;;;12.20;;
57225;SDS011;43082;43.568;22.256;2022-09-01T09:46:22;18.70;;;12.57;;
57225;SDS011;43082;43.568;22.256;2022-09-01T09:51:36;19.30;;;13.93;;
57225;SDS011;43082;43.568;22.256;2022-09-01T09:54:13;15.35;;;10.77;;
57225;SDS011;43082;43.568;22.256;2022-09-01T09:56:41;15.55;;;11.90;;
57225;SDS011;43082;43.568;22.256;2022-09-01T09:59:30;20.55;;;13.07;;
57225;SDS011;43082;43.568;22.256;2022-09-01T10:04:56;17.63;;;11.52;;
57225;SDS011;43082;43.568;22.256;2022-09-01T10:07:34;15.00;;;11.70;;
57225;SDS011;43082;43.568;22.256;2022-09-01T10:10:03;17.05;;;11.85;;
57225;SDS011;43082;43.568;22.256;2022-09-01T10:12:30;14.18;;;10.55;;
57225;SDS011;43082;43.568;22.256;2022-09-01T10:14:58;14.40;;;10.73;;
57225;SDS011;43082;43.568;22.256;2022-09-01T10:17:29;20.30;;;11.85;;
57225;SDS011;43082;43.568;22.256;2022-09-01T10:22:34;16.27;;;10.80;;
57225;SDS011;43082;43.568;22.256;2022-09-01T10:25:00;13.95;;;9.57;;
57225;SDS011;43082;43.568;22.256;2022-09-01T10:27:31;18.77;;;11.60;;
57225;SDS011;43082;43.568;22.256;2022-09-01T10:32:36;15.63;;;10.77;;
57225;SDS011;43082;43.568;22.256;2022-09-01T10:35:06;16.45;;;11.57;;
57225;SDS011;43082;43.568;22.256;2022-09-01T10:37:35;15.27;;;11.63;;
57225;SDS011;43082;43.568;22.256;2022-09-01T10:40:33;15.82;;;11.18;;
57225;SDS011;43082;43.568;22.256;2022-09-01T10:45:49;14.88;;;11.55;;
57225;SDS011;43082;43.568;22.256;2022-09-01T10:51:08;20.25;;;10.82;;
57225;SDS011;43082;43.568;22.256;2022-09-01T10:56:15;15.85;;;11.82;;
57225;SDS011;43082;43.568;22.256;2022-09-01T11:06:54;14.13;;;9.82;;
57225;SDS011;43082;43.568;22.256;2022-09-01T11:17:52;14.50;;;11.25;;
57225;SDS011;43082;43.568;22.256;2022-09-01T11:23:00;14.88;;;10.10;;
57225;SDS011;43082;43.568;22.256;2022-09-01T11:36:02;14.02;;;10.45;;
57225;SDS011;43082;43.568;22.256;2022-09-01T11:38:47;14.55;;;9.43;;
57225;SDS011;43082;43.568;22.256;2022-09-01T11:41:26;18.13;;;10.90;;
57225;SDS011;43082;43.568;22.256;2022-09-01T11:43:55;15.63;;;10.75;;
57225;SDS011;43082;43.568;22.256;2022-09-01T11:46:29;15.32;;;10.50;;
57225;SDS011;43082;43.568;22.256;2022-09-01T11:48:56;17.70;;;9.57;;
57225;SDS011;43082;43.568;22.256;2022-09-01T11:51:23;14.35;;;10.43;;
57225;SDS011;43082;43.568;22.256;2022-09-01T11:53:49;17.73;;;11.70;;
57225;SDS011;43082;43.568;22.256;2022-09-01T11:56:23;15.35;;;10.77;;
57225;SDS011;43082;43.568;22.256;2022-09-01T11:58:50;16.90;;;11.20;;
57225;SDS011;43082;43.568;22.256;2022-09-01T12:01:22;18.80;;;12.18;;
57225;SDS011;43082;43.568;22.256;2022-09-01T12:04:20;14.25;;;11.77;;
57225;SDS011;43082;43.568;22.256;2022-09-01T12:06:50;15.05;;;9.35;;
57225;SDS011;43082;43.568;22.256;2022-09-01T12:09:22;17.17;;;11.45;;
57225;SDS011;43082;43.568;22.256;2022-09-01T12:11:56;17.13;;;12.40;;
57225;SDS011;43082;43.568;22.256;2022-09-01T12:14:22;17.80;;;12.10;;
57225;SDS011;43082;43.568;22.256;2022-09-01T12:16:55;20.75;;;12.73;;
57225;SDS011;43082;43.568;22.256;2022-09-01T12:19:28;22.65;;;14.27;;
57225;SDS011;43082;43.568;22.256;2022-09-01T12:22:17;19.13;;;12.45;;
57225;SDS011;43082;43.568;22.256;2022-09-01T12:24:45;17.95;;;11.80;;
57225;SDS011;43082;43.568;22.256;2022-09-01T12:27:13;16.00;;;11.60;;
57225;SDS011;43082;43.568;22.256;2022-09-01T12:29:38;18.83;;;12.40;;
57225;SDS011;43082;43.568;22.256;2022-09-01T12:32:04;15.75;;;11.80;;
57225;SDS011;43082;43.568;22.256;2022-09-01T12:34:40;16.50;;;12.13;;
57225;SDS011;43082;43.568;22.256;2022-09-01T12:39:36;17.10;;;11.48;;
57225;SDS011;43082;43.568;22.256;2022-09-01T12:44:45;14.68;;;10.82;;
57225;SDS011;43082;43.568;22.256;2022-09-01T12:49:58;18.58;;;12.77;;
57225;SDS011;43082;43.568;22.256;2022-09-01T12:52:31;15.32;;;10.15;;
57225;SDS011;43082;43.568;22.256;2022-09-01T12:57:31;17.27;;;12.13;;
57225;SDS011;43082;43.568;22.256;2022-09-01T13:00:12;17.90;;;10.55;;
57225;SDS011;43082;43.568;22.256;2022-09-01T13:02:45;15.15;;;11.10;;
57225;SDS011;43082;43.568;22.256;2022-09-01T13:07:51;15.90;;;10.98;;
57225;SDS011;43082;43.568;22.256;2022-09-01T13:10:17;15.10;;;9.82;;
57225;SDS011;43082;43.568;22.256;2022-09-01T13:12:43;15.63;;;10.65;;
57225;SDS011;43082;43.568;22.256;2022-09-01T13:15:09;15.35;;;10.30;;
57225;SDS011;43082;43.568;22.256;2022-09-01T13:17:35;15.10;;;10.77;;
57225;SDS011;43082;43.568;22.256;2022-09-01T13:20:02;13.60;;;9.95;;
57225;SDS011;43082;43.568;22.256;2022-09-01T13:22:29;16.52;;;10.73;;
57225;SDS011;43082;43.568;22.256;2022-09-01T13:24:54;15.57;;;9.95;;
57225;SDS011;43082;43.568;22.256;2022-09-01T13:27:20;14.05;;;9.80;;
57225;SDS011;43082;43.568;22.256;2022-09-01T13:29:46;14.82;;;9.93;;
57225;SDS011;43082;43.568;22.256;2022-09-01T13:32:12;14.65;;;10.20;;
57225;SDS011;43082;43.568;22.256;2022-09-01T13:34:38;15.95;;;9.88;;
57225;SDS011;43082;43.568;22.256;2022-09-01T13:37:04;15.98;;;10.25;;
57225;SDS011;43082;43.568;22.256;2022-09-01T13:39:30;15.98;;;10.02;;
57225;SDS011;43082;43.568;22.256;2022-09-01T13:41:56;19.23;;;9.30;;
57225;SDS011;43082;43.568;22.256;2022-09-01T13:44:21;15.27;;;9.32;;
57225;SDS011;43082;43.568;22.256;2022-09-01T13:46:47;15.85;;;10.48;;
57225;SDS011;43082;43.568;22.256;2022-09-01T13:49:12;13.52;;;9.50;;
57225;SDS011;43082;43.568;22.256;2022-09-01T13:51:38;16.08;;;10.48;;
57225;SDS011;43082;43.568;22.256;2022-09-01T13:54:04;14.65;;;10.20;;
57225;SDS011;43082;43.568;22.256;2022-09-01T13:56:30;15.57;;;11.07;;
57225;SDS011;43082;43.568;22.256;2022-09-01T13:58:55;17.58;;;10.50;;
57225;SDS011;43082;43.568;22.256;2022-09-01T14:01:21;14.93;;;10.35;;
57225;SDS011;43082;43.568;22.256;2022-09-01T14:03:47;15.90;;;10.95;;
57225;SDS011;43082;43.568;22.256;2022-09-01T14:06:13;15.00;;;10.82;;
57225;SDS011;43082;43.568;22.256;2022-09-01T14:08:39;18.63;;;11.25;;
57225;SDS011;43082;43.568;22.256;2022-09-01T14:11:04;16.15;;;10.73;;
57225;SDS011;43082;43.568;22.256;2022-09-01T14:13:30;12.70;;;9.85;;
57225;SDS011;43082;43.568;22.256;2022-09-01T14:15:57;17.48;;;10.68;;
57225;SDS011;43082;43.568;22.256;2022-09-01T14:18:22;14.93;;;10.75;;
57225;SDS011;43082;43.568;22.256;2022-09-01T14:20:49;14.05;;;10.50;;
57225;SDS011;43082;43.568;22.256;2022-09-01T14:23:15;19.17;;;12.15;;
57225;SDS011;43082;43.568;22.256;2022-09-01T14:25:42;17.25;;;11.07;;
57225;SDS011;43082;43.568;22.256;2022-09-01T14:28:09;14.40;;;11.05;;
57225;SDS011;43082;43.568;22.256;2022-09-01T14:30:35;18.25;;;11.30;;
57225;SDS011;43082;43.568;22.256;2022-09-01T14:33:01;17.00;;;11.05;;
57225;SDS011;43082;43.568;22.256;2022-09-01T14:35:28;16.48;;;11.60;;
57225;SDS011;43082;43.568;22.256;2022-09-01T14:37:57;18.08;;;11.88;;
57225;SDS011;43082;43.568;22.256;2022-09-01T14:40:23;16.63;;;11.55;;
57225;SDS011;43082;43.568;22.256;2022-09-01T14:42:49;16.38;;;12.30;;
57225;SDS011;43082;43.568;22.256;2022-09-01T14:45:22;16.80;;;12.05;;
57225;SDS011;43082;43.568;22.256;2022-09-01T14:47:51;15.23;;;10.23;;
57225;SDS011;43082;43.568;22.256;2022-09-01T14:50:19;13.93;;;8.95;;
57225;SDS011;43082;43.568;22.256;2022-09-01T14:52:46;14.07;;;9.20;;
57225;SDS011;43082;43.568;22.256;2022-09-01T14:55:12;13.48;;;8.18;;
57225;SDS011;43082;43.568;22.256;2022-09-01T14:57:38;13.10;;;8.23;;
57225;SDS011;43082;43.568;22.256;2022-09-01T15:00:08;16.65;;;9.73;;
57225;SDS011;43082;43.568;22.256;2022-09-01T15:02:36;16.73;;;8.55;;
57225;SDS011;43082;43.568;22.256;2022-09-01T15:05:02;14.55;;;8.48;;
57225;SDS011;43082;43.568;22.256;2022-09-01T15:07:28;13.68;;;9.70;;
57225;SDS011;43082;43.568;22.256;2022-09-01T15:09:54;12.93;;;9.00;;
57225;SDS011;43082;43.568;22.256;2022-09-01T15:12:21;13.82;;;9.18;;
57225;SDS011;43082;43.568;22.256;2022-09-01T15:14:48;15.00;;;9.02;;
57225;SDS011;43082;43.568;22.256;2022-09-01T15:17:14;13.73;;;8.25;;
57225;SDS011;43082;43.568;22.256;2022-09-01T15:19:40;18.88;;;8.88;;
57225;SDS011;43082;43.568;22.256;2022-09-01T15:22:05;15.38;;;10.10;;
57225;SDS011;43082;43.568;22.256;2022-09-01T15:24:32;12.07;;;9.75;;
57225;SDS011;43082;43.568;22.256;2022-09-01T15:26:58;15.27;;;10.07;;
57225;SDS011;43082;43.568;22.256;2022-09-01T15:29:23;16.73;;;10.10;;
57225;SDS011;43082;43.568;22.256;2022-09-01T15:31:48;18.70;;;8.70;;
57225;SDS011;43082;43.568;22.256;2022-09-01T15:34:14;13.82;;;7.60;;
57225;SDS011;43082;43.568;22.256;2022-09-01T15:36:42;14.23;;;8.40;;
57225;SDS011;43082;43.568;22.256;2022-09-01T15:39:09;13.68;;;9.43;;
57225;SDS011;43082;43.568;22.256;2022-09-01T15:41:35;15.73;;;9.77;;
57225;SDS011;43082;43.568;22.256;2022-09-01T15:44:02;14.05;;;10.00;;
57225;SDS011;43082;43.568;22.256;2022-09-01T15:46:32;13.30;;;9.75;;
57225;SDS011;43082;43.568;22.256;2022-09-01T15:48:59;18.35;;;12.20;;
57225;SDS011;43082;43.568;22.256;2022-09-01T15:51:28;13.40;;;9.75;;
57225;SDS011;43082;43.568;22.256;2022-09-01T15:53:58;15.43;;;10.02;;
57225;SDS011;43082;43.568;22.256;2022-09-01T15:56:25;14.13;;;9.27;;
57225;SDS011;43082;43.568;22.256;2022-09-01T15:58:51;12.43;;;9.65;;